Montreal (YUL/CYUL)

Information

Location
Montreal, QB, Canada
Local Time
18:27 / 6:27 pm
GMT Time
22:27 / 10:27 pm
Gates
Unassigned
No FAA reported delays
METAR CYUL 272224Z 09003KT 2 1/2SM -DZ BR BKN003 OVC006 04/03 A2992 RMK SF5ST3 SLP134
TAF TAF CYUL 272046Z 2721/2818 13005KT 6SM -RA BR OVC004 TEMPO 2721/2804 2SM -DZ BR OVC003 FM280400 VRB03KT 11/2SM -RA BR OVC003 TEMPO 2804/2812 1/2SM -DZ FG VV002 FM281600 VRB03KT 4SM -DZ BR OVC003 RMK NXT FCST BY 280000Z
  • No charts available